Terminal Aerodrome Forecast
Issued by NWS Cleveland, OH

Home | Current Version | Previous Version | Text Only | Print | Product List | Glossary On
Versions: 1 2 3 4 5 6 7 8 9 10 11 12 13 14 15
000
FTUS41 KCLE 201720
TAFMFD
TAF
KMFD 201720Z 2018/2118 25012G18KT P6SM VCTS BKN045CB
     FM202200 27008KT P6SM SCT045 BKN200
     FM210800 29004KT 4SM BR BKN015
      TEMPO 2111/2114 2SM BR BKN007
     FM211500 01008KT P6SM SCT020=

USA.gov is the U.S. government's official web portal to all federal, state and local government web resources and services.